createdAt,value
2023-02-22T00:02:44.484Z,17.08
2023-02-22T00:05:52.990Z,18.38
2023-02-22T00:08:59.339Z,16.83
2023-02-22T00:12:03.325Z,17.80
2023-02-22T00:15:12.702Z,16.65
2023-02-22T00:18:18.738Z,16.77
2023-02-22T00:21:26.507Z,16.48
2023-02-22T00:24:30.821Z,17.20
2023-02-22T00:27:36.993Z,15.85
2023-02-22T00:30:43.080Z,17.30
2023-02-22T00:33:49.308Z,16.77
2023-02-22T00:36:56.379Z,18.10
2023-02-22T00:40:07.082Z,18.05
2023-02-22T00:43:11.039Z,17.73
2023-02-22T00:46:17.088Z,18.02
2023-02-22T00:52:30.725Z,15.85
2023-02-22T00:55:37.198Z,18.40
2023-02-22T00:58:44.013Z,18.40
2023-02-22T01:01:47.897Z,15.90
2023-02-22T01:04:53.714Z,18.63
2023-02-22T01:08:01.896Z,17.98
2023-02-22T01:11:07.743Z,16.42
2023-02-22T01:14:11.642Z,18.25
2023-02-22T01:17:17.583Z,17.85
2023-02-22T01:20:25.091Z,18.05
2023-02-22T01:23:33.057Z,17.77
2023-02-22T01:26:37.327Z,18.60
2023-02-22T01:29:43.162Z,18.35
2023-02-22T01:32:47.163Z,18.27
2023-02-22T01:35:55.352Z,18.30
2023-02-22T01:39:01.230Z,18.35
2023-02-22T01:42:09.123Z,18.10
2023-02-22T01:45:43.853Z,18.15
2023-02-22T01:48:53.359Z,18.65
2023-02-22T01:52:01.475Z,18.13
2023-02-22T01:55:10.408Z,19.23
2023-02-22T01:58:18.028Z,18.52
2023-02-22T02:01:25.697Z,20.92
2023-02-22T02:04:30.131Z,20.35
2023-02-22T02:07:37.401Z,20.33
2023-02-22T02:10:43.749Z,22.88
2023-02-22T02:13:54.397Z,24.25
2023-02-22T02:17:00.797Z,24.45
2023-02-22T02:20:17.503Z,23.50
2023-02-22T02:23:46.572Z,25.13
2023-02-22T02:27:10.142Z,25.52
2023-02-22T02:30:46.517Z,24.67
2023-02-22T02:33:58.628Z,25.02
2023-02-22T02:37:08.501Z,26.35
2023-02-22T02:40:23.312Z,27.45
2023-02-22T02:43:31.550Z,27.60
2023-02-22T02:46:45.077Z,26.70
2023-02-22T02:49:56.556Z,30.65
2023-02-22T02:53:06.340Z,30.10
2023-02-22T02:56:10.189Z,28.85
2023-02-22T02:59:31.698Z,28.63
2023-02-22T03:02:52.914Z,28.50
2023-02-22T03:06:19.313Z,29.45
2023-02-22T03:09:37.423Z,30.08
2023-02-22T03:12:49.916Z,30.33
2023-02-22T03:15:58.388Z,32.45
2023-02-22T03:19:10.835Z,32.85
2023-02-22T03:22:24.258Z,33.72
2023-02-22T03:25:37.692Z,32.17
2023-02-22T03:28:44.554Z,33.70
2023-02-22T03:31:54.817Z,29.85
2023-02-22T03:35:06.001Z,34.65
2023-02-22T03:38:21.364Z,34.20
2023-02-22T03:41:27.845Z,34.40
2023-02-22T03:44:39.595Z,31.85
2023-02-22T03:47:49.665Z,32.25
2023-02-22T03:50:57.834Z,30.45
2023-02-22T03:54:04.145Z,31.58
2023-02-22T03:57:22.358Z,32.13
2023-02-22T04:00:33.871Z,30.30
2023-02-22T04:03:39.940Z,28.55
2023-02-22T04:06:44.033Z,30.75
2023-02-22T04:09:52.410Z,32.80
2023-02-22T04:12:56.686Z,29.63
2023-02-22T04:16:02.937Z,31.08
2023-02-22T04:19:07.674Z,32.10
2023-02-22T04:22:15.385Z,29.75
2023-02-22T04:28:26.938Z,29.15
2023-02-22T04:31:41.093Z,31.60
2023-02-22T04:34:47.115Z,32.25
2023-02-22T04:40:59.482Z,28.90
2023-02-22T04:44:04.674Z,30.70
2023-02-22T04:47:11.312Z,29.65
2023-02-22T04:53:21.838Z,28.58
2023-02-22T04:56:27.616Z,29.83
2023-02-22T04:59:33.803Z,30.63
2023-02-22T05:02:40.716Z,29.00
2023-02-22T05:05:46.918Z,30.92
2023-02-22T05:11:58.312Z,31.33
2023-02-22T05:15:02.124Z,29.52
2023-02-22T05:18:08.058Z,31.35
2023-02-22T05:24:18.829Z,30.35
2023-02-22T05:30:32.307Z,30.58
2023-02-22T05:33:36.250Z,30.15
2023-02-22T05:36:42.107Z,31.45
2023-02-22T05:39:46.148Z,35.03
2023-02-22T05:42:54.798Z,33.10
2023-02-22T05:45:58.792Z,32.25
2023-02-22T05:49:04.840Z,31.90
2023-02-22T05:55:17.124Z,33.92
2023-02-22T05:58:23.584Z,30.40
2023-02-22T06:01:29.846Z,33.55
2023-02-22T06:04:33.687Z,34.10
2023-02-22T06:07:39.504Z,33.38
2023-02-22T06:11:03.307Z,32.38
2023-02-22T06:14:11.078Z,32.13
2023-02-22T06:17:16.317Z,33.67
2023-02-22T06:20:24.313Z,33.45
2023-02-22T06:23:28.837Z,31.10
2023-02-22T06:26:35.512Z,33.75
2023-02-22T06:29:41.372Z,33.42
2023-02-22T06:32:47.179Z,33.28
2023-02-22T06:38:58.055Z,33.05
2023-02-22T06:42:02.191Z,33.15
2023-02-22T06:45:11.168Z,37.75
2023-02-22T06:48:15.463Z,36.53
2023-02-22T06:51:21.467Z,38.28
2023-02-22T06:54:26.559Z,36.95
2023-02-22T06:57:32.367Z,36.95
2023-02-22T07:00:38.261Z,40.20
2023-02-22T07:03:44.209Z,35.97
2023-02-22T07:09:54.248Z,37.67
2023-02-22T07:16:06.137Z,36.55
2023-02-22T07:19:09.984Z,39.22
2023-02-22T07:22:16.990Z,39.70
2023-02-22T07:25:21.244Z,38.95
2023-02-22T07:28:27.132Z,41.08
2023-02-22T07:34:43.361Z,39.70
2023-02-22T07:37:47.668Z,39.80
2023-02-22T07:40:53.479Z,42.38
2023-02-22T07:43:57.328Z,43.15
2023-02-22T07:47:05.140Z,40.83
2023-02-22T07:50:09.361Z,41.33
2023-02-22T07:53:19.480Z,40.55
2023-02-22T07:56:23.459Z,40.70
2023-02-22T07:59:29.258Z,41.28
2023-02-22T08:02:35.050Z,41.05
2023-02-22T08:05:42.446Z,41.65
2023-02-22T08:08:46.263Z,41.83
2023-02-22T08:11:52.085Z,36.13
2023-02-22T08:18:05.230Z,35.75
2023-02-22T08:21:09.135Z,36.83
2023-02-22T08:24:14.964Z,35.00
2023-02-22T08:27:18.800Z,39.28
2023-02-22T08:30:25.332Z,35.20
2023-02-22T08:33:31.206Z,37.75
2023-02-22T08:36:37.013Z,36.35
2023-02-22T08:39:40.811Z,36.17
2023-02-22T08:42:46.979Z,33.17
2023-02-22T08:45:52.144Z,35.30
2023-02-22T08:49:00.299Z,34.85
2023-02-22T08:52:04.529Z,32.70
2023-02-22T08:55:10.353Z,32.47
2023-02-22T08:58:14.263Z,33.17
2023-02-22T09:01:32.715Z,34.30
2023-02-22T09:04:39.053Z,30.27
2023-02-22T09:07:45.860Z,32.95
2023-02-22T09:10:52.100Z,30.98
2023-02-22T09:13:57.946Z,32.00
2023-02-22T09:17:04.019Z,32.88
2023-02-22T09:20:14.286Z,33.53
2023-02-22T09:23:21.613Z,32.70
2023-02-22T09:26:27.674Z,34.38
2023-02-22T09:32:38.540Z,31.40
2023-02-22T09:35:46.407Z,32.35
2023-02-22T09:38:55.751Z,33.30
2023-02-22T09:42:08.784Z,31.33
2023-02-22T09:45:21.657Z,29.08
2023-02-22T09:48:26.519Z,31.60
2023-02-22T09:51:40.610Z,30.55
2023-02-22T09:54:51.165Z,29.83
2023-02-22T09:58:00.900Z,27.27
2023-02-22T10:01:22.353Z,27.88
2023-02-22T10:04:41.918Z,29.73
2023-02-22T10:07:53.440Z,28.00
2023-02-22T10:11:08.650Z,27.33
2023-02-22T10:14:34.653Z,21.60
2023-02-22T10:17:48.732Z,27.17
2023-02-22T10:20:57.549Z,25.95
2023-02-22T10:24:15.662Z,26.10
2023-02-22T10:27:22.075Z,26.73
2023-02-22T10:30:34.355Z,26.30
2023-02-22T10:33:42.791Z,30.45
2023-02-22T10:36:52.045Z,25.83
2023-02-22T10:40:04.918Z,24.45
2023-02-22T10:43:13.314Z,22.85
2023-02-22T10:46:22.346Z,25.40
2023-02-22T10:49:34.260Z,24.35
2023-02-22T10:52:38.129Z,24.42
2023-02-22T10:56:12.099Z,27.52
2023-02-22T10:59:29.086Z,26.23
2023-02-22T11:02:37.466Z,24.38
2023-02-22T11:05:42.511Z,26.73
2023-02-22T11:08:51.497Z,26.63
2023-02-22T11:12:18.758Z,25.88
2023-02-22T11:15:30.674Z,25.30
2023-02-22T11:18:36.648Z,25.88
2023-02-22T11:21:42.803Z,26.80
2023-02-22T11:24:50.040Z,28.02
2023-02-22T11:28:09.741Z,27.10
2023-02-22T11:31:17.323Z,26.13
2023-02-22T11:34:33.688Z,26.92
2023-02-22T11:37:38.332Z,27.58
2023-02-22T11:40:44.876Z,28.13
2023-02-22T11:43:53.658Z,28.10
2023-02-22T11:47:06.293Z,27.30
2023-02-22T11:50:18.460Z,26.63
2023-02-22T11:53:33.164Z,26.55
2023-02-22T11:56:41.402Z,27.17
2023-02-22T12:00:06.579Z,27.80
2023-02-22T12:03:29.560Z,25.33
2023-02-22T12:06:47.413Z,24.65
2023-02-22T12:09:56.406Z,24.83
2023-02-22T12:13:16.471Z,28.40
2023-02-22T12:16:31.388Z,25.35
2023-02-22T12:19:40.451Z,25.90
2023-02-22T12:22:54.709Z,26.00
2023-02-22T12:26:04.701Z,25.70
2023-02-22T12:29:14.152Z,24.50
2023-02-22T12:32:34.202Z,25.35
2023-02-22T12:35:41.735Z,23.92
2023-02-22T12:38:54.182Z,24.98
2023-02-22T12:42:00.131Z,23.50
2023-02-22T12:45:16.225Z,22.77
2023-02-22T12:48:42.031Z,22.92
2023-02-22T12:51:53.891Z,23.00
2023-02-22T12:55:05.645Z,23.30
2023-02-22T12:58:24.602Z,23.60
2023-02-22T13:01:36.017Z,20.58
2023-02-22T13:04:43.904Z,23.30
2023-02-22T13:07:58.191Z,20.92
2023-02-22T13:11:14.918Z,21.48
2023-02-22T13:14:42.813Z,20.52
2023-02-22T13:18:01.749Z,20.13
2023-02-22T13:21:16.049Z,20.67
2023-02-22T13:24:26.261Z,20.77
2023-02-22T13:27:36.590Z,19.88
2023-02-22T13:30:50.691Z,21.10
2023-02-22T13:34:12.460Z,19.75
2023-02-22T13:37:41.709Z,20.85
2023-02-22T13:41:11.689Z,19.65
2023-02-22T13:44:59.138Z,18.60
2023-02-22T13:48:20.406Z,18.83
2023-02-22T13:51:50.389Z,18.98
2023-02-22T13:55:01.246Z,19.65
2023-02-22T13:58:09.548Z,19.08
2023-02-22T14:01:47.110Z,20.52
2023-02-22T14:04:52.977Z,18.38
2023-02-22T14:07:57.390Z,19.38
2023-02-22T14:11:05.334Z,19.75
2023-02-22T14:14:17.749Z,19.60
2023-02-22T14:17:30.119Z,19.73
2023-02-22T14:20:36.460Z,19.27
2023-02-22T14:23:43.424Z,18.67
2023-02-22T14:26:58.062Z,20.95
2023-02-22T14:30:05.019Z,19.40
2023-02-22T14:33:43.874Z,20.02
2023-02-22T14:36:55.990Z,19.25
2023-02-22T14:40:12.145Z,19.52
2023-02-22T14:43:22.289Z,21.30
2023-02-22T14:46:31.143Z,20.90
2023-02-22T14:49:41.900Z,20.48
2023-02-22T14:52:49.111Z,20.30
2023-02-22T14:56:01.745Z,20.58
2023-02-22T14:59:18.149Z,19.20
2023-02-22T15:02:25.405Z,21.13
2023-02-22T15:05:37.652Z,21.23
2023-02-22T15:11:53.420Z,17.80
2023-02-22T15:15:14.058Z,18.48
2023-02-22T15:18:24.917Z,19.52
2023-02-22T15:21:33.369Z,19.55
2023-02-22T15:24:39.716Z,18.58
2023-02-22T15:27:47.801Z,18.60
2023-02-22T15:30:51.753Z,17.15
2023-02-22T15:33:58.113Z,18.35
2023-02-22T15:37:24.347Z,19.02
2023-02-22T15:40:34.371Z,19.13
2023-02-22T15:43:39.971Z,17.77
2023-02-22T15:46:45.905Z,16.35
2023-02-22T15:53:27.643Z,15.68
2023-02-22T15:56:35.567Z,16.98
2023-02-22T15:59:48.273Z,15.82
2023-02-22T16:02:53.180Z,16.35
2023-02-22T16:06:00.706Z,20.08
2023-02-22T16:09:10.157Z,22.52
2023-02-22T16:12:28.985Z,22.38
2023-02-22T16:15:34.177Z,17.25
2023-02-22T16:18:40.809Z,16.83
2023-02-22T16:21:56.250Z,15.57
2023-02-22T16:25:27.538Z,17.45
2023-02-22T16:28:35.061Z,14.77
2023-02-22T16:31:41.960Z,16.35
2023-02-22T16:34:47.421Z,16.23
2023-02-22T16:37:56.732Z,16.20
2023-02-22T16:41:00.882Z,16.60
2023-02-22T16:44:09.818Z,15.40
2023-02-22T16:47:14.166Z,16.55
2023-02-22T16:50:21.225Z,16.08
2023-02-22T16:53:27.678Z,16.13
2023-02-22T16:56:34.870Z,16.70
2023-02-22T16:59:41.535Z,16.10
2023-02-22T17:02:47.595Z,14.63
2023-02-22T17:05:51.679Z,15.60
2023-02-22T17:08:57.525Z,15.95
2023-02-22T17:12:01.661Z,14.90
2023-02-22T17:15:12.037Z,16.40
2023-02-22T17:18:21.873Z,14.80
2023-02-22T17:21:27.711Z,15.50
2023-02-22T17:24:33.394Z,14.93
2023-02-22T17:27:39.205Z,14.73
2023-02-22T17:30:48.169Z,14.85
2023-02-22T17:34:02.256Z,14.30
2023-02-22T17:37:06.281Z,15.15
2023-02-22T17:40:14.035Z,16.45
2023-02-22T17:43:18.747Z,14.02
2023-02-22T17:46:26.744Z,15.30
2023-02-22T17:49:30.647Z,13.95
2023-02-22T17:52:36.554Z,14.32
2023-02-22T17:55:41.186Z,15.70
2023-02-22T17:58:48.995Z,15.07
2023-02-22T18:01:54.884Z,16.88
2023-02-22T18:05:00.738Z,16.48
2023-02-22T18:08:04.595Z,16.15
2023-02-22T18:11:10.433Z,17.77
2023-02-22T18:14:14.570Z,19.58
2023-02-22T18:17:22.657Z,19.63
2023-02-22T18:20:30.459Z,21.08
2023-02-22T18:23:36.287Z,19.40
2023-02-22T18:26:40.251Z,19.48
2023-02-22T18:29:46.128Z,19.70
2023-02-22T18:32:52.078Z,17.30
2023-02-22T18:35:59.021Z,20.40
2023-02-22T18:39:03.345Z,20.17
2023-02-22T18:42:10.776Z,18.95
2023-02-22T18:45:15.075Z,19.50
2023-02-22T18:48:22.903Z,18.20
2023-02-22T18:51:27.740Z,17.92
2023-02-22T18:54:33.525Z,17.92
2023-02-22T18:57:37.377Z,19.25
2023-02-22T19:00:43.270Z,19.23
2023-02-22T19:03:49.057Z,18.27
2023-02-22T19:06:56.948Z,18.25
2023-02-22T19:10:02.002Z,17.20
2023-02-22T19:13:10.138Z,18.08
2023-02-22T19:16:16.080Z,17.35
2023-02-22T19:19:26.576Z,17.23
2023-02-22T19:22:32.142Z,16.73
2023-02-22T19:25:41.860Z,19.08
2023-02-22T19:28:46.300Z,17.88
2023-02-22T19:31:53.062Z,16.60
2023-02-22T19:35:01.421Z,17.75
2023-02-22T19:38:07.301Z,18.70
2023-02-22T19:44:20.306Z,18.15
2023-02-22T19:50:31.726Z,18.52
2023-02-22T19:53:38.392Z,17.25
2023-02-22T19:56:44.361Z,17.90
2023-02-22T20:03:05.051Z,17.25
2023-02-22T20:06:11.283Z,17.20
2023-02-22T20:09:19.321Z,19.45
2023-02-22T20:12:23.144Z,18.60
2023-02-22T20:15:29.431Z,19.13
2023-02-22T20:18:33.445Z,18.48
2023-02-22T20:21:41.410Z,18.67
2023-02-22T20:24:46.894Z,17.33
2023-02-22T20:27:52.816Z,18.75
2023-02-22T20:30:56.888Z,19.13
2023-02-22T20:34:05.619Z,19.67
2023-02-22T20:37:11.481Z,19.73
2023-02-22T20:40:17.433Z,19.58
2023-02-22T20:46:30.863Z,22.27
2023-02-22T20:49:35.352Z,23.02
2023-02-22T20:52:44.406Z,22.50
2023-02-22T20:55:51.576Z,22.90
2023-02-22T20:58:57.712Z,22.17
2023-02-22T21:02:01.664Z,23.27
2023-02-22T21:05:07.660Z,22.00
2023-02-22T21:08:14.974Z,22.05
2023-02-22T21:11:21.712Z,23.25
2023-02-22T21:14:25.826Z,24.45
2023-02-22T21:17:31.774Z,23.92
2023-02-22T21:23:50.429Z,24.60
2023-02-22T21:26:55.138Z,25.55
2023-02-22T21:30:00.973Z,24.27
2023-02-22T21:33:06.117Z,24.77
2023-02-22T21:36:14.124Z,24.02
2023-02-22T21:39:20.253Z,25.38
2023-02-22T21:42:26.303Z,25.17
2023-02-22T21:48:36.141Z,26.13
2023-02-22T21:51:40.065Z,26.25
2023-02-22T21:54:47.877Z,26.85
2023-02-22T21:57:51.931Z,27.45
2023-02-22T22:00:58.814Z,27.13
2023-02-22T22:04:03.846Z,28.75
2023-02-22T22:07:09.713Z,27.55
2023-02-22T22:10:18.148Z,29.83
2023-02-22T22:13:24.892Z,27.63
2023-02-22T22:16:30.410Z,28.13
2023-02-22T22:19:39.970Z,29.90
2023-02-22T22:22:45.419Z,28.80
2023-02-22T22:25:53.204Z,29.73
2023-02-22T22:28:59.553Z,29.58
2023-02-22T22:32:06.019Z,28.92
2023-02-22T22:35:14.050Z,29.50
2023-02-22T22:38:20.096Z,29.02
2023-02-22T22:41:27.370Z,31.55
2023-02-22T22:44:41.274Z,30.13
2023-02-22T22:47:47.845Z,28.75
2023-02-22T22:51:01.940Z,29.23
2023-02-22T22:54:08.728Z,28.63
2023-02-22T22:57:16.673Z,28.80
2023-02-22T23:00:30.853Z,28.58
2023-02-22T23:03:37.736Z,28.08
2023-02-22T23:06:45.282Z,28.10
2023-02-22T23:09:51.146Z,28.27
2023-02-22T23:12:57.859Z,26.48
2023-02-22T23:16:03.815Z,27.33
2023-02-22T23:19:10.189Z,28.92
2023-02-22T23:22:14.679Z,29.10
2023-02-22T23:25:20.959Z,27.73
2023-02-22T23:28:26.900Z,29.08
2023-02-22T23:31:33.496Z,26.60
2023-02-22T23:34:40.637Z,29.92
2023-02-22T23:37:52.388Z,29.63
2023-02-22T23:40:58.022Z,29.45
2023-02-22T23:44:07.888Z,29.98
2023-02-22T23:47:11.796Z,29.05
2023-02-22T23:50:18.614Z,32.50
2023-02-22T23:53:25.322Z,30.38
2023-02-22T23:56:31.470Z,30.88
2023-02-22T23:59:39.734Z,30.67
